createdAt,value
2022-11-02T05:01:15.542Z,11.80
2022-11-02T05:03:43.881Z,11.80
2022-11-02T05:06:12.045Z,11.60
2022-11-02T05:08:39.875Z,11.60
2022-11-02T05:11:07.837Z,11.60
2022-11-02T05:16:06.806Z,11.60
2022-11-02T05:18:35.854Z,11.60
2022-11-02T05:21:03.846Z,11.60
2022-11-02T05:23:31.620Z,11.50
2022-11-02T05:26:00.938Z,11.50
2022-11-02T05:28:30.019Z,11.50
2022-11-02T05:30:59.698Z,11.60
2022-11-02T05:33:30.675Z,11.60
2022-11-02T05:36:01.486Z,11.60
2022-11-02T05:38:29.596Z,11.50
2022-11-02T05:40:59.142Z,11.50
2022-11-02T05:45:57.342Z,11.50
2022-11-02T05:48:26.557Z,11.40
2022-11-02T05:53:27.146Z,11.40
2022-11-02T05:55:58.981Z,11.40
2022-11-02T05:58:27.230Z,11.40
2022-11-02T06:00:55.354Z,11.50
2022-11-02T06:03:23.120Z,11.50
2022-11-02T06:05:56.993Z,11.50
2022-11-02T06:08:26.084Z,12.20
2022-11-02T06:10:54.022Z,11.40
2022-11-02T06:13:21.803Z,11.40
2022-11-02T06:15:49.563Z,11.40
2022-11-02T06:18:17.332Z,11.40
2022-11-02T06:20:45.188Z,11.40
2022-11-02T06:25:52.159Z,11.30
2022-11-02T06:28:20.123Z,11.30
2022-11-02T06:30:47.964Z,11.30
2022-11-02T06:33:16.079Z,11.30
2022-11-02T06:35:46.985Z,11.30
2022-11-02T06:38:15.499Z,11.30
2022-11-02T06:40:43.712Z,11.40
2022-11-02T06:43:17.319Z,11.50
2022-11-02T06:45:46.629Z,11.50
2022-11-02T06:48:14.505Z,11.50
2022-11-02T06:50:42.377Z,11.50
2022-11-02T06:53:10.273Z,11.60
2022-11-02T06:55:38.080Z,11.50
2022-11-02T06:58:05.938Z,11.60
2022-11-02T07:00:35.185Z,11.60
2022-11-02T07:03:04.917Z,11.60
2022-11-02T07:05:33.419Z,11.70
2022-11-02T07:08:01.365Z,11.90
2022-11-02T07:10:29.426Z,11.90
2022-11-02T07:12:58.589Z,11.90
2022-11-02T07:15:27.972Z,11.90
2022-11-02T07:17:57.107Z,11.80
2022-11-02T07:20:24.939Z,11.80
2022-11-02T07:22:56.824Z,11.80
2022-11-02T07:25:25.901Z,11.90
2022-11-02T07:27:53.797Z,11.90
2022-11-02T07:30:21.755Z,11.80
2022-11-02T07:32:49.642Z,11.90
2022-11-02T07:35:19.148Z,11.90
2022-11-02T07:37:56.535Z,11.90
2022-11-02T07:40:24.298Z,11.90
2022-11-02T07:42:53.846Z,11.90
2022-11-02T07:45:22.087Z,11.90
2022-11-02T07:47:51.027Z,11.90
2022-11-02T07:50:22.121Z,11.90
2022-11-02T07:52:51.416Z,12.00
2022-11-02T07:55:21.672Z,12.00
2022-11-02T07:57:54.656Z,12.00
2022-11-02T08:00:23.052Z,12.10
2022-11-02T08:02:54.721Z,12.10
2022-11-02T08:05:24.191Z,12.20
2022-11-02T08:07:58.228Z,12.20
2022-11-02T08:10:26.187Z,12.30
2022-11-02T08:12:54.189Z,12.20
2022-11-02T08:15:22.140Z,12.30
2022-11-02T08:18:00.133Z,12.30
2022-11-02T08:20:29.333Z,12.30
2022-11-02T08:22:57.341Z,12.20
2022-11-02T08:25:27.000Z,12.30
2022-11-02T08:27:57.408Z,12.30
2022-11-02T08:30:25.175Z,12.30
2022-11-02T08:32:56.768Z,12.40
2022-11-02T08:35:25.184Z,12.50
2022-11-02T08:37:59.716Z,12.50
2022-11-02T08:40:28.112Z,12.60
2022-11-02T08:42:59.635Z,12.80
2022-11-02T08:45:28.322Z,12.90
2022-11-02T08:47:56.815Z,12.90
2022-11-02T08:50:25.541Z,13.00
2022-11-02T08:52:53.727Z,13.00
2022-11-02T08:55:22.898Z,13.10
2022-11-02T08:57:51.968Z,13.10
2022-11-02T09:00:21.522Z,13.20
2022-11-02T09:03:00.357Z,13.20
2022-11-02T09:05:28.784Z,13.40
2022-11-02T09:07:57.860Z,13.40
2022-11-02T09:10:27.746Z,13.50
2022-11-02T09:12:55.975Z,13.60
2022-11-02T09:15:24.010Z,13.60
2022-11-02T09:17:51.807Z,13.70
2022-11-02T09:20:21.263Z,13.80
2022-11-02T09:22:49.580Z,13.80
2022-11-02T09:25:17.839Z,13.90
2022-11-02T09:27:50.404Z,13.90
2022-11-02T09:30:21.182Z,13.90
2022-11-02T09:32:55.055Z,13.80
2022-11-02T09:35:23.315Z,13.90
2022-11-02T09:37:51.677Z,14.00
2022-11-02T09:40:22.517Z,14.00
2022-11-02T09:43:02.457Z,14.00
2022-11-02T09:45:33.087Z,14.00
2022-11-02T09:48:27.071Z,14.00
2022-11-02T09:51:02.088Z,14.00
2022-11-02T09:53:40.497Z,14.20
2022-11-02T09:56:09.982Z,14.20
2022-11-02T09:58:41.088Z,14.30
2022-11-02T10:01:20.304Z,14.50
2022-11-02T10:04:06.598Z,14.50
2022-11-02T10:06:38.491Z,14.50
2022-11-02T10:09:13.283Z,14.50
2022-11-02T10:11:48.982Z,14.50
2022-11-02T10:14:24.124Z,14.60
2022-11-02T10:16:56.147Z,14.60
2022-11-02T10:19:27.777Z,14.60
2022-11-02T10:21:59.240Z,14.70
2022-11-02T10:24:32.794Z,14.70
2022-11-02T10:27:02.170Z,14.90
2022-11-02T10:29:47.560Z,14.90
2022-11-02T10:32:18.282Z,15.00
2022-11-02T10:34:58.660Z,14.90
2022-11-02T10:37:43.899Z,14.90
2022-11-02T10:40:23.751Z,14.70
2022-11-02T10:43:05.904Z,14.60
2022-11-02T10:46:03.069Z,14.50
2022-11-02T10:48:38.473Z,14.50
2022-11-02T10:51:12.305Z,14.50
2022-11-02T10:53:43.474Z,14.50
2022-11-02T10:56:16.484Z,14.50
2022-11-02T10:58:50.690Z,14.50
2022-11-02T11:01:19.904Z,14.60
2022-11-02T11:03:56.171Z,14.90
2022-11-02T11:06:25.335Z,14.90
2022-11-02T11:08:53.979Z,15.00
2022-11-02T11:11:25.106Z,15.10
2022-11-02T11:16:48.206Z,15.30
2022-11-02T11:19:38.199Z,15.40
2022-11-02T11:22:25.739Z,15.40
2022-11-02T11:24:54.258Z,15.50
2022-11-02T11:27:22.767Z,15.50
2022-11-02T11:29:55.799Z,15.50
2022-11-02T11:32:30.549Z,15.20
2022-11-02T11:35:02.857Z,15.20
2022-11-02T11:37:31.348Z,15.10
2022-11-02T11:40:02.456Z,15.10
2022-11-02T11:42:35.185Z,15.10
2022-11-02T11:45:05.437Z,15.30
2022-11-02T11:47:37.501Z,15.40
2022-11-02T11:50:08.901Z,15.50
2022-11-02T11:52:43.411Z,15.60
2022-11-02T11:55:23.914Z,15.80
2022-11-02T11:58:06.942Z,15.70
2022-11-02T12:00:35.896Z,15.80
2022-11-02T12:03:07.864Z,15.80
2022-11-02T12:05:48.641Z,15.90
2022-11-02T12:08:32.121Z,15.80
2022-11-02T12:11:09.010Z,15.90
2022-11-02T12:13:56.543Z,16.10
2022-11-02T12:16:34.302Z,16.30
2022-11-02T12:19:16.537Z,16.20
2022-11-02T12:22:02.529Z,16.00
2022-11-02T12:25:06.701Z,15.90
2022-11-02T12:27:43.424Z,15.90
2022-11-02T12:30:16.266Z,15.90
2022-11-02T12:33:13.876Z,15.90
2022-11-02T12:36:17.331Z,16.00
2022-11-02T12:38:54.077Z,16.00
2022-11-02T12:41:36.590Z,16.20
2022-11-02T12:44:19.559Z,16.20
2022-11-02T12:46:55.157Z,16.10
2022-11-02T12:49:37.444Z,16.10
2022-11-02T12:52:17.703Z,16.20
2022-11-02T12:54:49.033Z,16.30
2022-11-02T12:57:19.717Z,16.30
2022-11-02T12:59:50.894Z,16.30
2022-11-02T13:02:24.032Z,16.30
2022-11-02T13:04:57.395Z,16.30
2022-11-02T13:07:32.068Z,16.40
2022-11-02T13:10:05.739Z,16.50
2022-11-02T13:12:37.392Z,16.50
2022-11-02T13:15:11.967Z,16.40
2022-11-02T13:17:45.923Z,16.40
2022-11-02T13:20:19.746Z,16.40
2022-11-02T13:22:55.202Z,16.40
2022-11-02T13:25:29.427Z,16.50
2022-11-02T13:28:05.457Z,16.60
2022-11-02T13:30:34.735Z,16.60
2022-11-02T13:33:06.451Z,16.70
2022-11-02T13:35:36.055Z,16.70
2022-11-02T13:38:11.510Z,16.70
2022-11-02T13:40:43.980Z,16.60
2022-11-02T13:43:47.958Z,16.70
2022-11-02T13:46:34.173Z,16.90
2022-11-02T13:49:06.186Z,17.00
2022-11-02T13:51:38.501Z,16.90
2022-11-02T13:54:14.497Z,16.80
2022-11-02T13:56:43.513Z,16.80
2022-11-02T13:59:21.553Z,16.80
2022-11-02T14:01:51.675Z,16.80
2022-11-02T14:04:20.993Z,16.70
2022-11-02T14:06:56.407Z,16.70
2022-11-02T14:09:35.621Z,16.70
2022-11-02T14:12:28.058Z,16.70
2022-11-02T14:15:33.042Z,16.60
2022-11-02T14:18:12.790Z,16.60
2022-11-02T14:20:42.378Z,16.50
2022-11-02T14:23:36.531Z,16.50
2022-11-02T14:26:06.217Z,16.40
2022-11-02T14:28:41.928Z,16.40
2022-11-02T14:31:45.053Z,16.30
2022-11-02T14:34:40.902Z,16.30
2022-11-02T14:38:02.504Z,16.30
2022-11-02T14:40:36.757Z,16.30
2022-11-02T14:43:30.286Z,16.40
2022-11-02T14:46:09.599Z,16.40
2022-11-02T14:48:47.569Z,16.30
2022-11-02T14:51:20.097Z,16.30
2022-11-02T14:53:49.481Z,16.30
2022-11-02T14:56:17.377Z,16.40
2022-11-02T14:58:53.493Z,16.40
2022-11-02T15:01:21.592Z,16.40
2022-11-02T15:03:50.760Z,16.30
2022-11-02T15:06:25.469Z,16.30
2022-11-02T15:08:56.027Z,16.30
2022-11-02T15:11:47.394Z,16.20
2022-11-02T15:14:55.648Z,16.20
2022-11-02T15:18:05.993Z,16.20
2022-11-02T15:20:34.599Z,16.10
2022-11-02T15:23:26.543Z,16.00
2022-11-02T15:25:59.825Z,15.90
2022-11-02T15:28:30.537Z,15.90
2022-11-02T15:31:26.159Z,15.80
2022-11-02T15:33:57.707Z,15.80
2022-11-02T15:36:30.934Z,15.70
2022-11-02T15:38:59.180Z,15.60
2022-11-02T15:41:37.459Z,15.60
2022-11-02T15:47:02.639Z,15.60
2022-11-02T15:49:46.301Z,15.60
2022-11-02T15:52:24.352Z,15.50
2022-11-02T15:55:08.874Z,15.50
2022-11-02T15:57:45.914Z,15.50
2022-11-02T16:00:19.159Z,15.40
2022-11-02T16:02:51.131Z,15.40
2022-11-02T16:05:23.539Z,15.30
2022-11-02T16:10:42.497Z,15.30
2022-11-02T16:13:16.876Z,15.30
2022-11-02T16:15:46.054Z,15.20
2022-11-02T16:18:26.024Z,15.20
2022-11-02T16:20:56.961Z,15.20
2022-11-02T16:23:27.996Z,15.20
2022-11-02T16:25:57.685Z,15.20
2022-11-02T16:28:27.390Z,15.10
2022-11-02T16:31:06.886Z,15.10
2022-11-02T16:33:44.076Z,15.10
2022-11-02T16:36:15.669Z,15.00
2022-11-02T16:38:49.036Z,15.00
2022-11-02T16:41:17.920Z,14.90
2022-11-02T16:43:47.670Z,14.80
2022-11-02T16:46:17.703Z,14.80
2022-11-02T16:49:12.907Z,14.80
2022-11-02T16:51:41.224Z,14.80
2022-11-02T16:54:39.392Z,14.70
2022-11-02T16:57:14.285Z,14.70
2022-11-02T16:59:50.218Z,14.70
2022-11-02T17:02:18.569Z,14.60
2022-11-02T17:04:49.045Z,14.60
2022-11-02T17:07:23.112Z,14.60
2022-11-02T17:09:54.051Z,14.60
2022-11-02T17:12:29.929Z,14.50
2022-11-02T17:14:58.713Z,14.50
2022-11-02T17:17:36.456Z,14.50
2022-11-02T17:20:18.756Z,14.50
2022-11-02T17:22:55.677Z,14.40
2022-11-02T17:25:25.816Z,14.40
2022-11-02T17:27:55.123Z,14.40
2022-11-02T17:30:45.705Z,14.40
2022-11-02T17:33:27.835Z,14.40
2022-11-02T17:36:03.920Z,14.40
2022-11-02T17:38:31.845Z,14.40
2022-11-02T17:41:01.165Z,14.40
2022-11-02T17:43:28.447Z,14.30
2022-11-02T17:45:57.704Z,14.30
2022-11-02T17:48:28.364Z,14.30
2022-11-02T17:50:59.613Z,14.30
2022-11-02T17:53:27.772Z,14.30
2022-11-02T17:55:56.072Z,14.30
2022-11-02T17:58:23.809Z,14.20
2022-11-02T18:00:53.811Z,14.20
2022-11-02T18:03:25.554Z,14.20
2022-11-02T18:06:00.299Z,14.10
2022-11-02T18:08:28.436Z,14.10
2022-11-02T18:10:56.434Z,14.00
2022-11-02T18:13:25.311Z,14.00
2022-11-02T18:15:53.091Z,14.00
2022-11-02T18:18:20.838Z,13.90
2022-11-02T18:20:48.643Z,13.90
2022-11-02T18:23:19.508Z,13.90
2022-11-02T18:25:47.395Z,13.00
2022-11-02T18:28:15.161Z,13.80
2022-11-02T18:30:43.873Z,13.80
2022-11-02T18:33:13.858Z,13.80
2022-11-02T18:35:43.947Z,13.80
2022-11-02T18:38:12.057Z,13.80
2022-11-02T18:40:41.248Z,13.70
2022-11-02T18:43:09.447Z,13.70
2022-11-02T18:45:37.601Z,13.60
2022-11-02T18:48:05.751Z,13.60
2022-11-02T18:50:34.058Z,13.60
2022-11-02T18:53:01.824Z,13.60
2022-11-02T18:55:29.564Z,13.50
2022-11-02T18:57:58.957Z,13.50
2022-11-02T19:00:26.661Z,13.40
2022-11-02T19:02:54.391Z,13.40
2022-11-02T19:05:39.745Z,13.30
2022-11-02T19:08:25.058Z,13.30
2022-11-02T19:10:52.845Z,13.20
2022-11-02T19:13:21.899Z,13.20
2022-11-02T19:15:49.656Z,13.20
2022-11-02T19:18:17.440Z,13.10
2022-11-02T19:20:45.162Z,13.10
2022-11-02T19:23:12.877Z,13.10
2022-11-02T19:25:40.749Z,13.00
2022-11-02T19:28:08.824Z,13.00
2022-11-02T19:30:39.712Z,12.90
2022-11-02T19:33:08.479Z,12.90
2022-11-02T19:35:36.329Z,12.90
2022-11-02T19:38:04.094Z,12.80
2022-11-02T19:40:31.896Z,12.80
2022-11-02T19:42:59.626Z,12.80
2022-11-02T19:45:27.484Z,12.70
2022-11-02T19:47:56.689Z,12.70
2022-11-02T19:50:24.412Z,12.60
2022-11-02T19:52:52.115Z,12.70
2022-11-02T19:55:22.660Z,12.50
2022-11-02T19:57:50.433Z,12.50
2022-11-02T20:00:18.665Z,12.50
2022-11-02T20:02:49.828Z,12.40
2022-11-02T20:05:19.109Z,12.30
2022-11-02T20:07:46.824Z,12.20
2022-11-02T20:10:14.620Z,12.20
2022-11-02T20:12:42.434Z,12.10
2022-11-02T20:15:12.404Z,12.00
2022-11-02T20:17:58.380Z,12.00
2022-11-02T20:20:29.350Z,12.00
2022-11-02T20:22:57.116Z,12.10
2022-11-02T20:25:25.627Z,12.10
2022-11-02T20:27:53.569Z,12.10
2022-11-02T20:30:22.465Z,12.10
2022-11-02T20:32:50.571Z,12.10
2022-11-02T20:35:22.755Z,12.10
2022-11-02T20:37:51.872Z,12.10
2022-11-02T20:40:19.768Z,10.90
2022-11-02T20:42:50.114Z,12.10
2022-11-02T20:45:18.647Z,12.00
2022-11-02T20:50:16.863Z,12.00
2022-11-02T20:55:16.255Z,11.70
2022-11-02T20:57:44.006Z,11.70
2022-11-02T21:00:13.943Z,11.60
2022-11-02T21:02:41.726Z,11.50
2022-11-02T21:05:10.325Z,11.40
2022-11-02T21:07:38.229Z,11.40
2022-11-02T21:10:07.169Z,11.30
2022-11-02T21:12:53.981Z,11.30
2022-11-02T21:17:50.494Z,11.40
2022-11-02T21:20:33.723Z,11.40
2022-11-02T21:23:02.827Z,11.40
2022-11-02T21:25:31.665Z,11.40
2022-11-02T21:28:02.704Z,11.30
2022-11-02T21:38:05.315Z,11.30
2022-11-02T21:40:35.714Z,11.30
2022-11-02T21:43:05.140Z,11.30
2022-11-02T21:45:37.895Z,11.30
2022-11-02T21:48:05.983Z,11.30
2022-11-02T21:50:33.727Z,11.20
2022-11-02T21:53:01.470Z,11.20
2022-11-02T21:57:57.630Z,11.20
2022-11-02T22:00:46.931Z,11.20
2022-11-02T22:03:13.886Z,11.20
2022-11-02T22:05:59.443Z,11.20
2022-11-02T22:08:39.471Z,11.20
2022-11-02T22:11:08.709Z,11.20
2022-11-02T22:13:37.402Z,11.10
2022-11-02T22:16:11.296Z,11.10
2022-11-02T22:18:46.815Z,11.10
2022-11-02T22:21:18.505Z,11.10
2022-11-02T22:47:46.579Z,11.10
2022-11-02T22:50:14.982Z,11.20
2022-11-02T22:52:43.786Z,11.20
2022-11-02T22:55:11.652Z,11.10
2022-11-02T22:57:39.445Z,11.10
2022-11-02T23:00:08.532Z,11.10
2022-11-02T23:02:36.314Z,11.10
2022-11-02T23:05:05.785Z,11.20
2022-11-02T23:07:33.767Z,11.20
2022-11-02T23:10:21.832Z,11.20
2022-11-02T23:12:48.605Z,11.20
2022-11-02T23:17:52.172Z,11.10
2022-11-02T23:20:20.452Z,11.10
2022-11-02T23:23:05.876Z,11.10
2022-11-02T23:25:33.842Z,11.00
2022-11-02T23:28:19.140Z,11.00
2022-11-02T23:31:04.730Z,10.90
2022-11-02T23:33:34.305Z,10.90
2022-11-02T23:36:13.073Z,10.90
2022-11-02T23:38:59.391Z,10.90
2022-11-02T23:41:27.625Z,10.90
2022-11-02T23:44:11.331Z,11.00
2022-11-02T23:46:39.395Z,11.00
2022-11-02T23:49:07.196Z,11.00
2022-11-02T23:51:53.649Z,11.00
2022-11-02T23:54:39.018Z,11.00
2022-11-02T23:57:07.189Z,10.90
2022-11-02T23:59:34.993Z,10.90
